Sandia Park, NM (87047)

09:18 AM MDT del 27 Luglio 2016 (GMT -0600)
Mike in Sandia Knolls | | Change Station

Alt. 6693 ft 35.17 °N, 106.31 °W | Updated 5 minutes ago

Partly Cloudy
Parzialmente nuvoloso
73.0 °F
Sembra 77 °F
N
3.0
Vento Variabile Vento da NE
Gusts 7.0 mph

Oggi
Massima -- | Minima -- °F
--% Possibilità di precip.
Ieri
Massima -- | Minima -- °F
Precip. -- in
Pressione 29.99 in
Visibilità 10.0 miglia
Nuvole Alcuni 11000 ft
Alcuni 19000 ft
Indice di calore 77 °F
Punto di rugiada 57 °F
Umidità 57%
Piovosità 0.00 in
Spessore del manto nevoso Non disponibile.
6:11 AM 8:12 PM
Ultimo quarto, 42% visible
METAR KABQ 271452Z VRB05KT 10SM FEW110 FEW190 24/15 A3025 RMK AO2 SLP153 T02440150 51011
Pressione 29.99 in
Visibilità 10.0 miglia
Nuvole Alcuni 11000 ft
Alcuni 19000 ft
Indice di calore 77 °F
Punto di rugiada 57 °F
Umidità 57%
Piovosità 0.00 in
Spessore del manto nevoso Non disponibile.
6:11 AM 8:12 PM
Ultimo quarto, 42% visible
METAR KABQ 271452Z VRB05KT 10SM FEW110 FEW190 24/15 A3025 RMK AO2 SLP153 T02440150 51011

10-Day Weather Forecast

Almanac

Astronomia

Jul. 27, 2016 Alba Tramonto
Ora attuale
Crepuscolo civile
Crepuscolo nautico
Crepuscolo astronomico
Luna
Estensione della luce visibile
Lunghezza del giorno
Tomorrow will be .
, % of the Moon is Illuminated

Gli estremi di oggi

State Highs State Lows

Community

WunderPhotos

Upload Photos

1,927,858 foto caricate!

WunderBlog® & News

Nearby

Qualità dell'aria

  Qualità dell'aria Indice AQ Inquinante
Not available.

Profondità neve

Stazione Profondità Altitudine

Attività sismica

Città  Distanza Mag. Data & Ora
Minimo Magnitudo Mostrato è 2.5.

Temperature delle acque costiere

Località Temperatura

Stations

Stazioni meteo nelle vicinanze

Ubicazione della stazione Temp. Raffreddamento del vento Punto di rugiada Umidità Vento Precip. Alt. Aggiornato Tipo
                   

Watches & Warnings

There are currently no watches in effect.